Time,TemperatureF,DewpointF,PressureIn,WindDirection,WindDirectionDegrees,WindSpeedMPH,WindSpeedGustMPH,Humidity,HourlyPrecipIn,Conditions,Clouds,dailyrainin,SoftwareType,DateUTC
2013-08-21 00:14:00,71.0,66.0,30.07,South,171,0.0,0.0,84,0.00,,,0.00,,2013-08-21 04:14:00,
2013-08-21 00:24:00,70.0,65.0,30.07,South,171,0.0,0.0,85,0.00,,,0.00,,2013-08-21 04:24:00,
2013-08-21 00:44:00,70.0,66.0,30.07,South,171,0.0,0.0,86,0.00,,,0.00,,2013-08-21 04:44:00,
2013-08-21 00:54:00,69.0,65.0,30.07,South,171,0.0,0.0,87,0.00,,,0.00,,2013-08-21 04:54:00,
2013-08-21 01:13:00,69.0,65.0,30.07,South,171,0.0,0.0,87,0.00,,,0.00,,2013-08-21 05:13:00,
2013-08-21 01:23:00,69.0,65.0,30.07,South,171,0.0,0.0,86,0.00,,,0.00,,2013-08-21 05:23:00,
2013-08-21 01:43:00,68.0,64.0,30.07,South,171,0.0,0.0,87,0.00,,,0.00,,2013-08-21 05:43:00,
2013-08-21 01:52:00,68.0,65.0,30.07,South,171,0.0,0.0,89,0.00,,,0.00,,2013-08-21 05:52:00,
2013-08-21 02:12:00,68.0,65.0,30.07,South,171,0.0,0.0,89,0.00,,,0.00,,2013-08-21 06:12:00,
2013-08-21 02:22:00,68.0,64.0,30.06,South,171,0.0,0.0,88,0.00,,,0.00,,2013-08-21 06:22:00,
2013-08-21 02:42:00,68.0,64.0,30.06,South,171,0.0,0.0,87,0.00,,,0.00,,2013-08-21 06:42:00,
2013-08-21 02:52:00,68.0,64.0,30.06,South,171,0.0,0.0,88,0.00,,,0.00,,2013-08-21 06:52:00,
2013-08-21 03:11:00,68.0,64.0,30.06,South,171,0.0,0.0,88,0.00,,,0.00,,2013-08-21 07:11:00,
2013-08-21 03:22:00,68.0,64.0,30.06,South,171,0.0,0.0,88,0.00,,,0.00,,2013-08-21 07:22:00,
2013-08-21 03:42:00,68.0,64.0,30.06,South,171,0.0,0.0,87,0.00,,,0.00,,2013-08-21 07:42:00,
2013-08-21 03:53:00,68.0,64.0,30.06,South,171,0.0,0.0,87,0.00,,,0.00,,2013-08-21 07:53:00,
2013-08-21 04:12:00,68.0,64.0,30.06,South,171,0.0,0.0,87,0.00,,,0.00,,2013-08-21 08:12:00,
2013-08-21 04:22:00,68.0,64.0,30.06,South,171,0.0,0.0,87,0.00,,,0.00,,2013-08-21 08:22:00,
2013-08-21 04:43:00,67.0,63.0,30.06,South,171,0.0,0.0,86,0.00,,,0.00,,2013-08-21 08:43:00,
2013-08-21 04:52:00,66.0,62.0,30.06,South,171,0.0,0.0,88,0.00,,,0.00,,2013-08-21 08:52:00,
2013-08-21 05:11:00,66.0,63.0,30.06,South,171,0.0,0.0,89,0.00,,,0.00,,2013-08-21 09:11:00,
2013-08-21 05:22:00,65.0,62.0,30.06,South,171,0.0,0.0,90,0.00,,,0.00,,2013-08-21 09:22:00,
2013-08-21 05:43:00,65.0,62.0,30.06,South,171,0.0,0.0,91,0.00,,,0.00,,2013-08-21 09:43:00,
2013-08-21 05:53:00,64.0,62.0,30.06,South,171,0.0,0.0,92,0.00,,,0.00,,2013-08-21 09:53:00,
2013-08-21 06:13:00,64.0,62.0,30.06,South,171,0.0,0.0,93,0.00,,,0.00,,2013-08-21 10:13:00,
2013-08-21 06:23:00,64.0,62.0,30.07,South,171,0.0,0.0,93,0.00,,,0.00,,2013-08-21 10:23:00,
2013-08-21 06:43:00,64.0,62.0,30.07,South,171,0.0,0.0,94,0.00,,,0.00,,2013-08-21 10:43:00,
2013-08-21 06:52:00,64.0,62.0,30.07,South,171,0.0,0.0,94,0.00,,,0.00,,2013-08-21 10:52:00,
2013-08-21 07:12:00,64.0,62.0,30.07,South,171,0.0,0.0,94,0.00,,,0.00,,2013-08-21 11:12:00,
2013-08-21 07:22:00,65.0,64.0,30.08,South,171,0.0,1.0,95,0.00,,,0.00,,2013-08-21 11:22:00,
2013-08-21 07:42:00,65.0,63.0,30.08,South,171,0.0,1.0,94,0.00,,,0.00,,2013-08-21 11:42:00,
2013-08-21 07:52:00,65.0,63.0,30.09,South,171,0.0,0.0,93,0.00,,,0.00,,2013-08-21 11:52:00,
2013-08-21 08:12:00,65.0,63.0,30.09,South,171,0.0,0.0,94,0.00,,,0.00,,2013-08-21 12:12:00,
2013-08-21 08:22:00,65.0,63.0,30.09,South,171,0.0,0.0,94,0.00,,,0.00,,2013-08-21 12:22:00,
2013-08-21 08:42:00,65.0,64.0,30.09,South,171,0.0,0.0,95,0.00,,,0.00,,2013-08-21 12:42:00,
2013-08-21 08:52:00,66.0,64.0,30.09,South,171,0.0,2.0,94,0.00,,,0.00,,2013-08-21 12:52:00,
2013-08-21 09:12:00,67.0,65.0,30.10,South,171,0.0,1.0,94,0.00,,,0.00,,2013-08-21 13:12:00,
2013-08-21 09:21:00,68.0,66.0,30.10,SE,144,0.0,3.0,93,0.00,,,0.00,,2013-08-21 13:21:00,
2013-08-21 09:42:00,70.0,67.0,30.10,SSE,163,0.0,2.0,90,0.00,,,0.00,,2013-08-21 13:42:00,
2013-08-21 09:52:00,72.0,68.0,30.09,SE,146,0.0,4.0,87,0.00,,,0.00,,2013-08-21 13:52:00,
2013-08-21 10:11:00,73.0,68.0,30.10,SSE,150,0.0,4.0,84,0.00,,,0.00,,2013-08-21 14:11:00,
2013-08-21 10:21:00,75.0,69.0,30.09,SE,125,0.0,3.0,83,0.00,,,0.00,,2013-08-21 14:21:00,
2013-08-21 10:42:00,76.0,70.0,30.09,ESE,123,0.0,3.0,81,0.00,,,0.00,,2013-08-21 14:42:00,
2013-08-21 10:52:00,77.0,70.0,30.09,SE,129,0.0,3.0,78,0.00,,,0.00,,2013-08-21 14:52:00,
2013-08-21 11:11:00,78.0,70.0,30.09,South,184,2.0,5.0,77,0.00,,,0.00,,2013-08-21 15:11:00,
2013-08-21 11:22:00,79.0,71.0,30.09,WSW,241,2.0,4.0,76,0.00,,,0.00,,2013-08-21 15:22:00,
2013-08-21 11:43:00,79.0,70.0,30.09,SE,131,1.0,4.0,75,0.00,,,0.00,,2013-08-21 15:43:00,
2013-08-21 11:54:00,80.0,70.0,30.09,ESE,114,2.0,9.0,72,0.00,,,0.00,,2013-08-21 15:54:00,
2013-08-21 12:13:00,81.0,71.0,30.09,SE,144,1.0,5.0,71,0.00,,,0.00,,2013-08-21 16:13:00,
2013-08-21 12:24:00,82.0,72.0,30.09,SE,137,2.0,6.0,72,0.00,,,0.00,,2013-08-21 16:24:00,
2013-08-21 12:43:00,82.0,71.0,30.09,SW,234,2.0,9.0,69,0.00,,,0.00,,2013-08-21 16:43:00,
2013-08-21 12:53:00,82.0,69.0,30.09,SE,130,2.0,6.0,66,0.00,,,0.00,,2013-08-21 16:53:00,
2013-08-21 13:13:00,83.0,70.0,30.09,NE,55,1.0,5.0,66,0.00,,,0.00,,2013-08-21 17:13:00,
2013-08-21 13:23:00,83.0,69.0,30.08,East,92,3.0,7.0,63,0.00,,,0.00,,2013-08-21 17:23:00,
2013-08-21 13:43:00,84.0,70.0,30.08,West,267,2.0,7.0,63,0.00,,,0.00,,2013-08-21 17:43:00,
2013-08-21 13:53:00,84.0,70.0,30.07,WSW,250,2.0,7.0,64,0.00,,,0.00,,2013-08-21 17:53:00,
2013-08-21 14:02:00,84.0,70.0,30.07,WSW,250,2.0,7.0,64,0.00,,,0.00,,2013-08-21 18:02:00,
2013-08-21 14:12:00,84.0,70.0,30.07,WSW,250,2.0,7.0,64,0.00,,,0.00,,2013-08-21 18:12:00,
2013-08-21 14:22:00,84.0,69.0,30.06,ESE,108,2.0,8.0,60,0.00,,,0.00,,2013-08-21 18:22:00,
2013-08-21 14:42:00,84.0,70.0,30.06,WSW,239,1.0,6.0,63,0.00,,,0.00,,2013-08-21 18:42:00,
2013-08-21 14:52:00,85.0,70.0,30.06,WNW,284,2.0,7.0,61,0.00,,,0.00,,2013-08-21 18:52:00,
2013-08-21 15:12:00,85.0,68.0,30.05,NNW,342,1.0,6.0,57,0.00,,,0.00,,2013-08-21 19:12:00,
2013-08-21 15:22:00,85.0,68.0,30.05,ESE,115,4.0,9.0,57,0.00,,,0.00,,2013-08-21 19:22:00,
2013-08-21 15:52:00,86.0,68.0,30.04,ESE,120,2.0,8.0,55,0.00,,,0.00,,2013-08-21 19:52:00,
2013-08-21 16:11:00,86.0,68.0,30.04,NW,308,0.0,5.0,55,0.00,,,0.00,,2013-08-21 20:11:00,
2013-08-21 16:22:00,86.0,67.0,30.03,SE,143,1.0,5.0,53,0.00,,,0.00,,2013-08-21 20:22:00,
2013-08-21 16:52:00,86.0,68.0,30.02,WSW,244,4.0,7.0,55,0.00,,,0.00,,2013-08-21 20:52:00,
2013-08-21 17:12:00,86.0,68.0,30.02,SE,143,2.0,7.0,56,0.00,,,0.00,,2013-08-21 21:12:00,
2013-08-21 17:21:00,86.0,67.0,30.01,SSW,201,2.0,5.0,54,0.00,,,0.00,,2013-08-21 21:21:00,
2013-08-21 17:54:00,86.0,68.0,30.00,SSE,148,1.0,5.0,55,0.00,,,0.00,,2013-08-21 21:54:00,
2013-08-21 18:14:00,86.0,69.0,30.00,SE,144,1.0,5.0,57,0.00,,,0.00,,2013-08-21 22:14:00,
2013-08-21 18:24:00,85.0,68.0,30.00,SE,144,2.0,6.0,57,0.00,,,0.00,,2013-08-21 22:24:00,
2013-08-21 18:53:00,85.0,69.0,29.99,SE,144,1.0,4.0,59,0.00,,,0.00,,2013-08-21 22:53:00,
2013-08-21 19:13:00,84.0,68.0,29.98,SE,132,2.0,5.0,59,0.00,,,0.00,,2013-08-21 23:13:00,
2013-08-21 19:22:00,84.0,70.0,29.98,SSE,160,0.0,3.0,62,0.00,,,0.00,,2013-08-21 23:22:00,
2013-08-21 19:53:00,82.0,69.0,29.98,SE,138,0.0,2.0,65,0.00,,,0.00,,2013-08-21 23:53:00,
2013-08-21 20:12:00,81.0,69.0,29.97,SE,140,1.0,2.0,66,0.00,,,0.00,,2013-08-22 00:12:00,
2013-08-21 20:22:00,80.0,68.0,29.97,SSE,164,0.0,3.0,68,0.00,,,0.00,,2013-08-22 00:22:00,
2013-08-21 20:42:00,79.0,68.0,29.96,SSE,164,0.0,1.0,70,0.00,,,0.00,,2013-08-22 00:42:00,
2013-08-21 20:52:00,78.0,68.0,29.97,SSE,164,0.0,1.0,72,0.00,,,0.00,,2013-08-22 00:52:00,
2013-08-21 21:11:00,78.0,68.0,29.98,SSE,164,0.0,1.0,71,0.00,,,0.00,,2013-08-22 01:11:00,
2013-08-21 21:22:00,77.0,68.0,29.98,SSE,164,0.0,0.0,73,0.00,,,0.00,,2013-08-22 01:22:00,
2013-08-21 21:42:00,77.0,68.0,29.99,SSE,164,0.0,1.0,73,0.00,,,0.00,,2013-08-22 01:42:00,
2013-08-21 21:52:00,76.0,68.0,30.01,SSE,164,0.0,0.0,77,0.00,,,0.00,,2013-08-22 01:52:00,
2013-08-21 22:12:00,74.0,67.0,30.02,SSE,164,0.0,0.0,78,0.00,,,0.00,,2013-08-22 02:12:00,
2013-08-21 22:22:00,74.0,68.0,30.02,SSE,164,0.0,1.0,81,0.00,,,0.00,,2013-08-22 02:22:00,
2013-08-21 23:12:00,72.0,67.0,30.02,SSE,164,0.0,0.0,84,0.00,,,0.00,,2013-08-22 03:12:00,
2013-08-21 23:22:00,72.0,67.0,30.01,SSE,164,0.0,1.0,84,0.00,,,0.00,,2013-08-22 03:22:00,
2013-08-21 23:45:00,71.0,66.0,30.01,SSE,164,0.0,1.0,85,0.00,,,0.00,,2013-08-22 03:45:00,
2013-08-21 23:54:00,71.0,66.0,30.01,SSE,164,0.0,1.0,85,0.00,,,0.00,,2013-08-22 03:54:00,